Flight Information

DEPARTURE
RIVERSIDE, CA
Elevation:
1536
Runways:
14/32 - 13302x200 - CONC-G
12/30 - 3061x100 - ASPH
ATIS:
134.75
Clearance Delivery:
121.75
Ground:
121.75
Tower:
127.65
DESTINATION
,
Elevation:
TPA:
1000 (est.)


6740.7 NM74° True-14° Var60° HDG

Flight Plan:
(click to file on line)

1. Type
2. Aircraft Identification
3. Aircraft Type / Special Equipment
4. True Airspeed
kts
5. Departure Airport
(ICAO code)
6. Arriving Airport
(ICAO code)
7. Cruising Altitude
ft
8. Alternate Airport
(ICAO code)
9. Route of Flight
10. Remarks


00:00:00 Departure ATIS: Destination ATIS:

Clearance Limit:
Route:
Altitude: Expect in minutes
Frequency:
Transponder: (7500 Hijack / 7600 Lost Comms / 7700 Emergency)


KRIV 101558Z AUTO 11004KT 10SM CLR 26/13 A3002 RMK AO2 SLP152 T02640128
Time: 2020-07-10T15:58:00Z
1594397056
Winds: 110 @ 4 kts
Visibility: 10.0 sm
Clouds (AGL): CLR
Temperature: 26.4 C
Dew Point: 12.8 C
Pressure: 30.02067 in Hgbr


Notes:

Data extracted from FAA Digital Chart Supplement. Effective: 0901Z Thursday, May 21, 2020 to 0901Z Thursday, Jul 16, 2020
Current ATIS data is provided courtisy of PilotEdge.